sensor_id;sensor_type;location;lat;lon;timestamp;pressure;altitude;pressure_sealevel;temperature;humidity
75996;BME280;64681;49.738;9.004;2023-01-31T00:01:15;100319.31;;;3.63;79.70
75996;BME280;64681;49.738;9.004;2023-01-31T00:03:42;100315.41;;;3.86;78.38
75996;BME280;64681;49.738;9.004;2023-01-31T00:06:30;100320.72;;;3.96;78.09
75996;BME280;64681;49.738;9.004;2023-01-31T00:08:57;100320.47;;;4.08;77.32
75996;BME280;64681;49.738;9.004;2023-01-31T00:11:25;100324.38;;;3.85;78.49
75996;BME280;64681;49.738;9.004;2023-01-31T00:13:52;100321.94;;;3.63;79.16
75996;BME280;64681;49.738;9.004;2023-01-31T00:16:19;100325.09;;;3.60;79.52
75996;BME280;64681;49.738;9.004;2023-01-31T00:18:46;100330.75;;;3.89;78.52
75996;BME280;64681;49.738;9.004;2023-01-31T00:21:22;100332.34;;;3.90;78.19
75996;BME280;64681;49.738;9.004;2023-01-31T00:23:50;100336.31;;;3.93;78.01
75996;BME280;64681;49.738;9.004;2023-01-31T00:26:24;100333.38;;;3.89;78.28
75996;BME280;64681;49.738;9.004;2023-01-31T00:28:53;100333.16;;;4.01;77.95
75996;BME280;64681;49.738;9.004;2023-01-31T00:31:20;100327.09;;;4.06;77.56
75996;BME280;64681;49.738;9.004;2023-01-31T00:33:47;100333.16;;;4.01;77.53
75996;BME280;64681;49.738;9.004;2023-01-31T00:36:17;100337.13;;;4.19;76.94
75996;BME280;64681;49.738;9.004;2023-01-31T00:38:43;100325.50;;;4.20;76.43
75996;BME280;64681;49.738;9.004;2023-01-31T00:41:10;100330.75;;;3.94;77.40
75996;BME280;64681;49.738;9.004;2023-01-31T00:43:36;100328.34;;;3.77;78.18
75996;BME280;64681;49.738;9.004;2023-01-31T00:46:02;100328.63;;;3.91;77.80
75996;BME280;64681;49.738;9.004;2023-01-31T00:48:28;100321.25;;;4.09;77.06
75996;BME280;64681;49.738;9.004;2023-01-31T00:50:54;100324.97;;;4.13;76.93
75996;BME280;64681;49.738;9.004;2023-01-31T00:53:20;100324.72;;;4.15;76.38
75996;BME280;64681;49.738;9.004;2023-01-31T00:55:54;100308.31;;;4.02;77.17
75996;BME280;64681;49.738;9.004;2023-01-31T00:58:20;100326.56;;;4.19;76.51
75996;BME280;64681;49.738;9.004;2023-01-31T01:00:47;100324.44;;;4.32;76.21
75996;BME280;64681;49.738;9.004;2023-01-31T01:03:13;100316.00;;;4.24;75.97
75996;BME280;64681;49.738;9.004;2023-01-31T01:05:40;100315.44;;;4.22;76.46
75996;BME280;64681;49.738;9.004;2023-01-31T01:08:06;100324.19;;;4.28;76.23
75996;BME280;64681;49.738;9.004;2023-01-31T01:10:32;100321.28;;;4.24;76.09
75996;BME280;64681;49.738;9.004;2023-01-31T01:12:57;100321.53;;;4.23;76.52
75996;BME280;64681;49.738;9.004;2023-01-31T01:15:23;100319.91;;;3.96;77.18
75996;BME280;64681;49.738;9.004;2023-01-31T01:17:48;100330.50;;;4.11;76.09
75996;BME280;64681;49.738;9.004;2023-01-31T01:20:15;100326.53;;;4.09;76.28
75996;BME280;64681;49.738;9.004;2023-01-31T01:22:41;100328.94;;;4.21;76.04
75996;BME280;64681;49.738;9.004;2023-01-31T01:25:08;100339.00;;;4.24;76.05
75996;BME280;64681;49.738;9.004;2023-01-31T01:27:34;100336.59;;;4.22;75.38
75996;BME280;64681;49.738;9.004;2023-01-31T01:29:59;100342.97;;;4.32;75.64
75996;BME280;64681;49.738;9.004;2023-01-31T01:32:26;100341.13;;;4.37;75.73
75996;BME280;64681;49.738;9.004;2023-01-31T01:34:53;100338.72;;;4.25;75.41
75996;BME280;64681;49.738;9.004;2023-01-31T01:37:18;100344.28;;;4.34;75.22
75996;BME280;64681;49.738;9.004;2023-01-31T01:39:48;100344.25;;;4.14;75.75
75996;BME280;64681;49.738;9.004;2023-01-31T01:42:22;100342.69;;;4.28;75.41
75996;BME280;64681;49.738;9.004;2023-01-31T01:44:51;100340.31;;;4.32;75.52
75996;BME280;64681;49.738;9.004;2023-01-31T01:50:22;100350.38;;;4.45;75.00
75996;BME280;64681;49.738;9.004;2023-01-31T01:55:27;100358.56;;;4.38;74.97
75996;BME280;64681;49.738;9.004;2023-01-31T01:58:02;100359.91;;;4.56;74.15
75996;BME280;64681;49.738;9.004;2023-01-31T02:00:29;100353.53;;;4.52;74.53
75996;BME280;64681;49.738;9.004;2023-01-31T02:02:58;100361.75;;;4.46;74.00
75996;BME280;64681;49.738;9.004;2023-01-31T02:05:40;100354.34;;;4.53;73.97
75996;BME280;64681;49.738;9.004;2023-01-31T02:08:06;100363.81;;;4.18;75.15
75996;BME280;64681;49.738;9.004;2023-01-31T02:13:23;100358.81;;;4.32;74.82
75996;BME280;64681;49.738;9.004;2023-01-31T02:15:49;100362.81;;;4.65;73.73
75996;BME280;64681;49.738;9.004;2023-01-31T02:18:16;100364.16;;;4.57;73.95
75996;BME280;64681;49.738;9.004;2023-01-31T02:23:58;100363.84;;;4.80;73.10
75996;BME280;64681;49.738;9.004;2023-01-31T02:37:56;100378.16;;;4.58;73.03
75996;BME280;64681;49.738;9.004;2023-01-31T02:40:16;100369.66;;;4.35;74.10
75996;BME280;64681;49.738;9.004;2023-01-31T02:46:22;100358.03;;;4.31;74.00
75996;BME280;64681;49.738;9.004;2023-01-31T02:51:22;100360.66;;;4.26;73.63
75996;BME280;64681;49.738;9.004;2023-01-31T02:54:00;100362.53;;;4.46;73.01
75996;BME280;64681;49.738;9.004;2023-01-31T02:56:33;100354.34;;;4.42;73.57
75996;BME280;64681;49.738;9.004;2023-01-31T03:01:43;100356.19;;;4.32;73.47
75996;BME280;64681;49.738;9.004;2023-01-31T03:04:11;100359.66;;;4.53;72.34
75996;BME280;64681;49.738;9.004;2023-01-31T03:06:48;100360.69;;;4.31;73.26
75996;BME280;64681;49.738;9.004;2023-01-31T03:09:49;100360.63;;;4.00;73.69
75996;BME280;64681;49.738;9.004;2023-01-31T03:20:24;100357.78;;;4.48;72.52
75996;BME280;64681;49.738;9.004;2023-01-31T03:23:19;100351.16;;;4.35;72.87
75996;BME280;64681;49.738;9.004;2023-01-31T03:25:47;100347.19;;;4.17;72.79
75996;BME280;64681;49.738;9.004;2023-01-31T03:28:20;100361.44;;;4.16;73.01
75996;BME280;64681;49.738;9.004;2023-01-31T03:30:48;100366.19;;;4.09;73.23
75996;BME280;64681;49.738;9.004;2023-01-31T03:33:28;100380.50;;;4.18;72.99
75996;BME280;64681;49.738;9.004;2023-01-31T03:36:32;100377.34;;;4.26;72.38
75996;BME280;64681;49.738;9.004;2023-01-31T03:44:42;100399.06;;;4.70;70.96
75996;BME280;64681;49.738;9.004;2023-01-31T03:47:15;100401.44;;;4.61;71.08
75996;BME280;64681;49.738;9.004;2023-01-31T03:49:45;100407.78;;;4.39;71.43
75996;BME280;64681;49.738;9.004;2023-01-31T03:52:19;100401.19;;;4.57;70.42
75996;BME280;64681;49.738;9.004;2023-01-31T03:54:57;100416.50;;;4.60;70.86
75996;BME280;64681;49.738;9.004;2023-01-31T03:57:31;100404.88;;;4.56;71.07
75996;BME280;64681;49.738;9.004;2023-01-31T04:00:02;100395.88;;;4.63;70.87
75996;BME280;64681;49.738;9.004;2023-01-31T04:02:35;100387.38;;;4.45;71.04
75996;BME280;64681;49.738;9.004;2023-01-31T04:05:15;100386.06;;;4.42;70.35
75996;BME280;64681;49.738;9.004;2023-01-31T04:07:43;100386.28;;;4.05;71.81
75996;BME280;64681;49.738;9.004;2023-01-31T04:10:14;100390.56;;;4.21;71.08
75996;BME280;64681;49.738;9.004;2023-01-31T04:12:41;100397.72;;;3.62;72.69
75996;BME280;64681;49.738;9.004;2023-01-31T04:15:07;100400.09;;;3.59;73.41
75996;BME280;64681;49.738;9.004;2023-01-31T04:17:33;100392.16;;;3.59;72.89
75996;BME280;64681;49.738;9.004;2023-01-31T04:19:59;100402.25;;;3.72;72.83
75996;BME280;64681;49.738;9.004;2023-01-31T04:22:25;100406.22;;;3.70;72.72
75996;BME280;64681;49.738;9.004;2023-01-31T04:24:51;100408.81;;;3.59;73.04
75996;BME280;64681;49.738;9.004;2023-01-31T04:27:16;100399.78;;;3.50;73.58
75996;BME280;64681;49.738;9.004;2023-01-31T04:29:42;100403.56;;;3.64;73.14
75996;BME280;64681;49.738;9.004;2023-01-31T04:32:08;100404.53;;;3.53;73.70
75996;BME280;64681;49.738;9.004;2023-01-31T04:34:33;100410.53;;;3.38;74.24
75996;BME280;64681;49.738;9.004;2023-01-31T04:36:59;100404.63;;;3.69;73.23
75996;BME280;64681;49.738;9.004;2023-01-31T04:39:25;100403.13;;;3.88;72.62
75996;BME280;64681;49.738;9.004;2023-01-31T04:41:51;100395.41;;;3.76;72.19
75996;BME280;64681;49.738;9.004;2023-01-31T04:44:16;100387.28;;;3.83;72.51
75996;BME280;64681;49.738;9.004;2023-01-31T04:46:42;100381.50;;;4.02;71.71
75996;BME280;64681;49.738;9.004;2023-01-31T04:49:08;100393.31;;;3.78;72.11
75996;BME280;64681;49.738;9.004;2023-01-31T04:51:33;100390.69;;;3.78;71.82
75996;BME280;64681;49.738;9.004;2023-01-31T04:53:59;100387.50;;;3.82;71.84
75996;BME280;64681;49.738;9.004;2023-01-31T04:56:25;100389.25;;;3.60;72.31
75996;BME280;64681;49.738;9.004;2023-01-31T04:58:50;100383.41;;;3.53;72.72
75996;BME280;64681;49.738;9.004;2023-01-31T05:01:16;100388.25;;;3.67;72.05
75996;BME280;64681;49.738;9.004;2023-01-31T05:03:42;100380.91;;;3.79;71.90
75996;BME280;64681;49.738;9.004;2023-01-31T05:06:08;100384.91;;;3.87;70.93
75996;BME280;64681;49.738;9.004;2023-01-31T05:08:33;100380.34;;;3.77;71.12
75996;BME280;64681;49.738;9.004;2023-01-31T05:11:00;100373.41;;;3.60;71.79
75996;BME280;64681;49.738;9.004;2023-01-31T05:13:27;100373.66;;;3.48;71.89
75996;BME280;64681;49.738;9.004;2023-01-31T05:15:54;100373.06;;;3.41;72.09
75996;BME280;64681;49.738;9.004;2023-01-31T05:18:23;100368.00;;;3.29;72.87
75996;BME280;64681;49.738;9.004;2023-01-31T05:20:49;100358.72;;;3.27;72.17
75996;BME280;64681;49.738;9.004;2023-01-31T05:23:18;100359.75;;;3.15;72.77
75996;BME280;64681;49.738;9.004;2023-01-31T05:25:44;100361.44;;;2.94;73.46
75996;BME280;64681;49.738;9.004;2023-01-31T05:28:13;100364.34;;;2.93;73.52
75996;BME280;64681;49.738;9.004;2023-01-31T05:30:38;100360.22;;;3.07;72.52
75996;BME280;64681;49.738;9.004;2023-01-31T05:33:04;100355.91;;;2.96;73.10
75996;BME280;64681;49.738;9.004;2023-01-31T05:35:30;100349.06;;;2.95;73.68
75996;BME280;64681;49.738;9.004;2023-01-31T05:37:55;100345.81;;;2.88;73.57
75996;BME280;64681;49.738;9.004;2023-01-31T05:40:22;100346.53;;;2.73;74.56
75996;BME280;64681;49.738;9.004;2023-01-31T05:42:58;100350.56;;;2.85;73.91
75996;BME280;64681;49.738;9.004;2023-01-31T05:45:27;100356.53;;;2.71;74.36
75996;BME280;64681;49.738;9.004;2023-01-31T05:47:53;100346.94;;;2.59;74.67
75996;BME280;64681;49.738;9.004;2023-01-31T05:50:20;100360.31;;;2.85;73.99
75996;BME280;64681;49.738;9.004;2023-01-31T05:52:54;100373.09;;;2.98;73.79
75996;BME280;64681;49.738;9.004;2023-01-31T05:55:21;100369.94;;;3.01;73.50
75996;BME280;64681;49.738;9.004;2023-01-31T05:57:47;100371.06;;;3.11;73.44
75996;BME280;64681;49.738;9.004;2023-01-31T06:00:13;100368.97;;;3.13;73.25
75996;BME280;64681;49.738;9.004;2023-01-31T06:02:40;100363.13;;;3.06;73.15
75996;BME280;64681;49.738;9.004;2023-01-31T06:05:07;100362.97;;;2.85;74.12
75996;BME280;64681;49.738;9.004;2023-01-31T06:07:33;100362.06;;;2.69;75.02
75996;BME280;64681;49.738;9.004;2023-01-31T06:09:59;100357.34;;;2.71;74.77
75996;BME280;64681;49.738;9.004;2023-01-31T06:12:25;100350.47;;;2.70;74.29
75996;BME280;64681;49.738;9.004;2023-01-31T06:14:50;100356.78;;;2.69;74.11
75996;BME280;64681;49.738;9.004;2023-01-31T06:17:16;100358.31;;;2.65;74.94
75996;BME280;64681;49.738;9.004;2023-01-31T06:19:42;100367.75;;;2.56;75.42
75996;BME280;64681;49.738;9.004;2023-01-31T06:22:08;100355.94;;;2.63;75.10
75996;BME280;64681;49.738;9.004;2023-01-31T06:24:34;100356.38;;;2.50;75.02
75996;BME280;64681;49.738;9.004;2023-01-31T06:26:59;100367.66;;;2.45;75.18
75996;BME280;64681;49.738;9.004;2023-01-31T06:29:25;100362.47;;;2.56;75.17
75996;BME280;64681;49.738;9.004;2023-01-31T06:31:50;100368.66;;;2.39;76.09
75996;BME280;64681;49.738;9.004;2023-01-31T06:34:18;100374.34;;;2.26;75.78
75996;BME280;64681;49.738;9.004;2023-01-31T06:36:44;100371.44;;;2.27;76.01
75996;BME280;64681;49.738;9.004;2023-01-31T06:39:11;100374.34;;;2.26;76.19
75996;BME280;64681;49.738;9.004;2023-01-31T06:41:37;100379.25;;;2.17;77.48
75996;BME280;64681;49.738;9.004;2023-01-31T06:44:03;100361.59;;;2.17;77.04
75996;BME280;64681;49.738;9.004;2023-01-31T06:46:28;100363.88;;;2.36;76.40
75996;BME280;64681;49.738;9.004;2023-01-31T06:48:54;100371.47;;;2.60;75.72
75996;BME280;64681;49.738;9.004;2023-01-31T06:51:20;100358.97;;;2.45;76.04
75996;BME280;64681;49.738;9.004;2023-01-31T06:53:45;100365.72;;;2.68;75.79
75996;BME280;64681;49.738;9.004;2023-01-31T06:56:11;100351.81;;;2.78;74.78
75996;BME280;64681;49.738;9.004;2023-01-31T06:58:36;100360.50;;;2.73;75.23
75996;BME280;64681;49.738;9.004;2023-01-31T07:01:06;100357.47;;;2.92;75.06
75996;BME280;64681;49.738;9.004;2023-01-31T07:03:32;100363.25;;;2.89;74.23
75996;BME280;64681;49.738;9.004;2023-01-31T07:05:58;100374.56;;;3.27;72.66
75996;BME280;64681;49.738;9.004;2023-01-31T07:08:23;100374.16;;;3.03;73.81
75996;BME280;64681;49.738;9.004;2023-01-31T07:10:49;100381.31;;;3.07;74.25
75996;BME280;64681;49.738;9.004;2023-01-31T07:13:14;100387.16;;;3.09;73.58
75996;BME280;64681;49.738;9.004;2023-01-31T07:15:40;100391.69;;;3.19;73.36
75996;BME280;64681;49.738;9.004;2023-01-31T07:18:06;100399.94;;;2.90;74.20
75996;BME280;64681;49.738;9.004;2023-01-31T07:20:31;100401.88;;;3.05;74.22
75996;BME280;64681;49.738;9.004;2023-01-31T07:22:58;100392.66;;;3.08;73.99
75996;BME280;64681;49.738;9.004;2023-01-31T07:25:25;100392.75;;;3.23;73.18
75996;BME280;64681;49.738;9.004;2023-01-31T07:27:51;100390.94;;;3.29;73.30
75996;BME280;64681;49.738;9.004;2023-01-31T07:30:17;100392.63;;;3.45;72.35
75996;BME280;64681;49.738;9.004;2023-01-31T07:32:43;100397.38;;;3.43;72.75
75996;BME280;64681;49.738;9.004;2023-01-31T07:35:09;100393.97;;;3.05;73.95
75996;BME280;64681;49.738;9.004;2023-01-31T07:37:34;100397.53;;;3.21;73.25
75996;BME280;64681;49.738;9.004;2023-01-31T07:40:00;100393.13;;;3.37;73.36
75996;BME280;64681;49.738;9.004;2023-01-31T07:42:27;100390.25;;;3.44;72.73
75996;BME280;64681;49.738;9.004;2023-01-31T07:44:53;100408.06;;;3.21;72.90
75996;BME280;64681;49.738;9.004;2023-01-31T07:47:19;100403.19;;;3.45;73.33
75996;BME280;64681;49.738;9.004;2023-01-31T07:49:44;100399.50;;;3.46;72.75
75996;BME280;64681;49.738;9.004;2023-01-31T07:52:10;100394.44;;;3.40;72.32
75996;BME280;64681;49.738;9.004;2023-01-31T07:54:35;100399.81;;;3.55;72.51
75996;BME280;64681;49.738;9.004;2023-01-31T07:57:01;100398.84;;;3.77;72.15
75996;BME280;64681;49.738;9.004;2023-01-31T07:59:26;100401.59;;;3.44;72.26
75996;BME280;64681;49.738;9.004;2023-01-31T08:01:52;100410.66;;;3.59;72.37
75996;BME280;64681;49.738;9.004;2023-01-31T08:04:36;100420.72;;;3.67;71.76
75996;BME280;64681;49.738;9.004;2023-01-31T08:07:02;100410.09;;;3.57;72.72
75996;BME280;64681;49.738;9.004;2023-01-31T08:09:30;100416.28;;;3.78;72.05
75996;BME280;64681;49.738;9.004;2023-01-31T08:11:55;100409.31;;;3.56;72.80
75996;BME280;64681;49.738;9.004;2023-01-31T08:14:21;100405.69;;;3.68;71.92
75996;BME280;64681;49.738;9.004;2023-01-31T08:16:51;100406.09;;;4.18;70.45
75996;BME280;64681;49.738;9.004;2023-01-31T08:19:16;100408.78;;;4.33;70.16
75996;BME280;64681;49.738;9.004;2023-01-31T08:21:42;100405.63;;;4.36;70.47
75996;BME280;64681;49.738;9.004;2023-01-31T08:24:08;100405.88;;;4.19;70.56
75996;BME280;64681;49.738;9.004;2023-01-31T08:26:33;100407.25;;;4.58;69.95
75996;BME280;64681;49.738;9.004;2023-01-31T08:28:59;100422.34;;;4.57;69.34
75996;BME280;64681;49.738;9.004;2023-01-31T08:31:26;100416.13;;;4.05;70.81
75996;BME280;64681;49.738;9.004;2023-01-31T08:33:53;100420.41;;;4.17;70.69
75996;BME280;64681;49.738;9.004;2023-01-31T08:36:23;100424.19;;;4.83;68.22
75996;BME280;64681;49.738;9.004;2023-01-31T08:38:49;100427.09;;;5.02;66.88
75996;BME280;64681;49.738;9.004;2023-01-31T08:41:17;100426.00;;;4.36;69.30
75996;BME280;64681;49.738;9.004;2023-01-31T08:43:43;100425.75;;;4.58;69.56
75996;BME280;64681;49.738;9.004;2023-01-31T08:46:09;100430.00;;;4.64;69.12
75996;BME280;64681;49.738;9.004;2023-01-31T08:48:36;100430.28;;;4.83;68.45
75996;BME280;64681;49.738;9.004;2023-01-31T08:51:07;100424.19;;;4.62;68.04
75996;BME280;64681;49.738;9.004;2023-01-31T08:53:39;100420.78;;;4.82;68.33
75996;BME280;64681;49.738;9.004;2023-01-31T08:56:07;100421.81;;;4.86;67.62
75996;BME280;64681;49.738;9.004;2023-01-31T08:58:37;100421.25;;;4.43;68.80
75996;BME280;64681;49.738;9.004;2023-01-31T09:01:12;100414.34;;;4.37;69.36
75996;BME280;64681;49.738;9.004;2023-01-31T09:03:39;100410.66;;;4.38;68.96
75996;BME280;64681;49.738;9.004;2023-01-31T09:06:07;100405.75;;;3.83;70.44
75996;BME280;64681;49.738;9.004;2023-01-31T09:08:35;100410.56;;;4.07;70.55
75996;BME280;64681;49.738;9.004;2023-01-31T09:11:01;100411.22;;;4.50;68.44
75996;BME280;64681;49.738;9.004;2023-01-31T09:13:28;100414.19;;;3.85;70.49
75996;BME280;64681;49.738;9.004;2023-01-31T09:16:05;100410.41;;;4.39;69.22
75996;BME280;64681;49.738;9.004;2023-01-31T09:18:33;100416.47;;;4.35;69.83
75996;BME280;64681;49.738;9.004;2023-01-31T09:21:17;100424.53;;;3.92;70.69
75996;BME280;64681;49.738;9.004;2023-01-31T09:23:44;100410.13;;;4.36;70.13
75996;BME280;64681;49.738;9.004;2023-01-31T09:26:10;100424.16;;;4.41;69.68
75996;BME280;64681;49.738;9.004;2023-01-31T09:28:37;100431.88;;;4.64;68.56
75996;BME280;64681;49.738;9.004;2023-01-31T09:31:10;100425.78;;;4.68;68.58
75996;BME280;64681;49.738;9.004;2023-01-31T09:33:36;100412.00;;;4.71;68.34
75996;BME280;64681;49.738;9.004;2023-01-31T09:36:05;100415.72;;;5.12;68.14
75996;BME280;64681;49.738;9.004;2023-01-31T09:38:31;100404.56;;;5.35;66.89
75996;BME280;64681;49.738;9.004;2023-01-31T09:41:02;100411.47;;;5.21;67.88
75996;BME280;64681;49.738;9.004;2023-01-31T09:43:38;100400.09;;;5.10;68.52
75996;BME280;64681;49.738;9.004;2023-01-31T09:46:12;100393.44;;;5.28;67.41
75996;BME280;64681;49.738;9.004;2023-01-31T09:48:44;100397.59;;;5.65;66.22
75996;BME280;64681;49.738;9.004;2023-01-31T09:51:12;100396.28;;;5.58;66.11
75996;BME280;64681;49.738;9.004;2023-01-31T09:53:39;100404.31;;;5.16;66.70
75996;BME280;64681;49.738;9.004;2023-01-31T09:56:23;100409.28;;;5.49;66.49
75996;BME280;64681;49.738;9.004;2023-01-31T10:01:34;100409.88;;;5.30;68.25
75996;BME280;64681;49.738;9.004;2023-01-31T10:06:59;100410.25;;;5.84;66.10
75996;BME280;64681;49.738;9.004;2023-01-31T10:12:21;100412.81;;;5.18;67.56
75996;BME280;64681;49.738;9.004;2023-01-31T10:14:54;100409.38;;;4.66;69.04
75996;BME280;64681;49.738;9.004;2023-01-31T10:17:45;100382.34;;;5.11;68.82
75996;BME280;64681;49.738;9.004;2023-01-31T10:20:21;100391.94;;;4.70;70.29
75996;BME280;64681;49.738;9.004;2023-01-31T10:23:04;100383.41;;;5.10;69.51
75996;BME280;64681;49.738;9.004;2023-01-31T10:26:02;100386.59;;;4.96;68.93
75996;BME280;64681;49.738;9.004;2023-01-31T10:28:46;100392.44;;;4.83;70.23
75996;BME280;64681;49.738;9.004;2023-01-31T10:34:07;100383.47;;;4.94;70.04
75996;BME280;64681;49.738;9.004;2023-01-31T10:39:49;100387.66;;;5.16;68.91
75996;BME280;64681;49.738;9.004;2023-01-31T10:42:30;100377.31;;;5.25;68.83
75996;BME280;64681;49.738;9.004;2023-01-31T10:50:14;100347.19;;;4.89;70.15
75996;BME280;64681;49.738;9.004;2023-01-31T10:58:04;100345.88;;;4.51;71.39
75996;BME280;64681;49.738;9.004;2023-01-31T11:00:32;100341.66;;;4.55;70.76
75996;BME280;64681;49.738;9.004;2023-01-31T11:02:58;100346.66;;;5.03;69.42
75996;BME280;64681;49.738;9.004;2023-01-31T11:05:28;100349.25;;;5.29;69.00
75996;BME280;64681;49.738;9.004;2023-01-31T11:08:00;100343.41;;;5.21;69.72
75996;BME280;64681;49.738;9.004;2023-01-31T11:10:30;100335.19;;;5.28;69.34
75996;BME280;64681;49.738;9.004;2023-01-31T11:13:03;100307.75;;;4.98;70.15
75996;BME280;64681;49.738;9.004;2023-01-31T11:15:38;100289.22;;;4.88;70.72
75996;BME280;64681;49.738;9.004;2023-01-31T11:18:05;100286.56;;;4.98;70.37
75996;BME280;64681;49.738;9.004;2023-01-31T11:20:35;100281.81;;;4.95;70.13
75996;BME280;64681;49.738;9.004;2023-01-31T11:23:04;100283.72;;;4.74;70.49
75996;BME280;64681;49.738;9.004;2023-01-31T11:25:33;100284.47;;;4.90;70.39
75996;BME280;64681;49.738;9.004;2023-01-31T11:28:02;100285.84;;;4.67;71.79
75996;BME280;64681;49.738;9.004;2023-01-31T11:30:38;100290.59;;;4.65;71.53
75996;BME280;64681;49.738;9.004;2023-01-31T11:33:05;100268.91;;;4.52;72.19
75996;BME280;64681;49.738;9.004;2023-01-31T11:35:33;100270.25;;;4.34;72.66
75996;BME280;64681;49.738;9.004;2023-01-31T11:38:02;100248.38;;;5.20;70.70
75996;BME280;64681;49.738;9.004;2023-01-31T11:40:32;100254.03;;;6.03;68.10
75996;BME280;64681;49.738;9.004;2023-01-31T11:43:00;100243.69;;;6.01;67.45
75996;BME280;64681;49.738;9.004;2023-01-31T11:45:30;100239.91;;;6.42;66.96
75996;BME280;64681;49.738;9.004;2023-01-31T11:48:04;100249.97;;;6.16;67.19
75996;BME280;64681;49.738;9.004;2023-01-31T11:50:36;100241.44;;;6.19;66.94
75996;BME280;64681;49.738;9.004;2023-01-31T11:53:16;100237.94;;;6.24;65.51
75996;BME280;64681;49.738;9.004;2023-01-31T11:55:43;100239.25;;;5.42;68.89
75996;BME280;64681;49.738;9.004;2023-01-31T12:00:56;100226.09;;;5.76;67.54
75996;BME280;64681;49.738;9.004;2023-01-31T12:03:24;100247.75;;;5.44;68.63
75996;BME280;64681;49.738;9.004;2023-01-31T12:05:59;100245.56;;;4.96;70.54
75996;BME280;64681;49.738;9.004;2023-01-31T12:08:37;100245.03;;;5.54;68.83
75996;BME280;64681;49.738;9.004;2023-01-31T12:11:28;100242.19;;;5.40;68.48
75996;BME280;64681;49.738;9.004;2023-01-31T12:13:53;100225.94;;;5.57;68.33
75996;BME280;64681;49.738;9.004;2023-01-31T12:16:25;100218.97;;;5.27;69.81
75996;BME280;64681;49.738;9.004;2023-01-31T12:39:30;100210.44;;;5.35;69.92
75996;BME280;64681;49.738;9.004;2023-01-31T12:54:57;100183.22;;;6.04;67.10
75996;BME280;64681;49.738;9.004;2023-01-31T13:01:05;100154.94;;;5.94;67.76
75996;BME280;64681;49.738;9.004;2023-01-31T13:08:33;100148.22;;;6.07;67.66
75996;BME280;64681;49.738;9.004;2023-01-31T13:11:10;100137.78;;;5.51;68.78
75996;BME280;64681;49.738;9.004;2023-01-31T13:14:10;100122.09;;;5.90;67.56
75996;BME280;64681;49.738;9.004;2023-01-31T13:16:38;100132.03;;;6.08;67.37
75996;BME280;64681;49.738;9.004;2023-01-31T13:19:21;100128.22;;;6.20;67.08
75996;BME280;64681;49.738;9.004;2023-01-31T13:21:54;100122.78;;;6.30;66.54
75996;BME280;64681;49.738;9.004;2023-01-31T13:24:27;100112.31;;;6.20;67.76
75996;BME280;64681;49.738;9.004;2023-01-31T13:29:33;100118.78;;;6.32;66.77
75996;BME280;64681;49.738;9.004;2023-01-31T13:32:08;100100.78;;;6.05;65.94
75996;BME280;64681;49.738;9.004;2023-01-31T13:34:43;100094.75;;;5.94;68.26
75996;BME280;64681;49.738;9.004;2023-01-31T13:37:13;100097.13;;;5.96;67.18
75996;BME280;64681;49.738;9.004;2023-01-31T13:42:23;100095.00;;;5.63;68.34
75996;BME280;64681;49.738;9.004;2023-01-31T13:44:48;100082.44;;;5.79;67.88
75996;BME280;64681;49.738;9.004;2023-01-31T13:47:22;100088.09;;;5.33;69.66
75996;BME280;64681;49.738;9.004;2023-01-31T13:49:57;100085.19;;;5.34;69.94
75996;BME280;64681;49.738;9.004;2023-01-31T13:52:32;100074.47;;;5.79;67.71
75996;BME280;64681;49.738;9.004;2023-01-31T13:55:05;100080.75;;;5.59;68.34
75996;BME280;64681;49.738;9.004;2023-01-31T13:57:39;100081.34;;;5.51;67.99
75996;BME280;64681;49.738;9.004;2023-01-31T14:00:39;100088.13;;;5.92;66.85
75996;BME280;64681;49.738;9.004;2023-01-31T14:03:07;100086.34;;;5.58;68.65
75996;BME280;64681;49.738;9.004;2023-01-31T14:05:59;100089.22;;;5.27;69.24
75996;BME280;64681;49.738;9.004;2023-01-31T14:10:59;100091.88;;;5.61;68.77
75996;BME280;64681;49.738;9.004;2023-01-31T14:13:36;100100.16;;;5.15;69.78
75996;BME280;64681;49.738;9.004;2023-01-31T14:16:39;100111.03;;;5.13;70.10
75996;BME280;64681;49.738;9.004;2023-01-31T14:22:02;100109.50;;;5.42;69.56
75996;BME280;64681;49.738;9.004;2023-01-31T14:32:43;100103.34;;;5.12;70.84
75996;BME280;64681;49.738;9.004;2023-01-31T14:43:46;100108.13;;;5.49;69.95
75996;BME280;64681;49.738;9.004;2023-01-31T14:46:28;100118.72;;;5.04;72.29
75996;BME280;64681;49.738;9.004;2023-01-31T15:01:54;100097.03;;;5.07;74.08
75996;BME280;64681;49.738;9.004;2023-01-31T15:04:24;100105.22;;;5.06;73.89
75996;BME280;64681;49.738;9.004;2023-01-31T15:06:53;100093.06;;;5.00;73.82
75996;BME280;64681;49.738;9.004;2023-01-31T15:11:54;100095.31;;;4.82;74.95
75996;BME280;64681;49.738;9.004;2023-01-31T15:14:42;100086.28;;;4.88;74.88
75996;BME280;64681;49.738;9.004;2023-01-31T15:17:20;100084.06;;;4.51;76.32
75996;BME280;64681;49.738;9.004;2023-01-31T15:19:52;100078.81;;;4.35;77.64
75996;BME280;64681;49.738;9.004;2023-01-31T15:22:21;100078.97;;;4.65;76.51
75996;BME280;64681;49.738;9.004;2023-01-31T15:25:04;100085.78;;;4.81;75.76
75996;BME280;64681;49.738;9.004;2023-01-31T15:27:36;100091.00;;;4.31;77.58
75996;BME280;64681;49.738;9.004;2023-01-31T15:30:17;100083.13;;;4.16;77.95
75996;BME280;64681;49.738;9.004;2023-01-31T15:32:46;100112.66;;;4.43;77.96
75996;BME280;64681;49.738;9.004;2023-01-31T15:35:34;100096.47;;;4.55;77.39
75996;BME280;64681;49.738;9.004;2023-01-31T15:40:45;100102.75;;;4.75;76.90
75996;BME280;64681;49.738;9.004;2023-01-31T15:43:20;100120.50;;;4.69;77.66
75996;BME280;64681;49.738;9.004;2023-01-31T15:45:47;100112.41;;;4.35;79.14
75996;BME280;64681;49.738;9.004;2023-01-31T15:48:19;100107.63;;;4.42;78.74
75996;BME280;64681;49.738;9.004;2023-01-31T15:50:57;100109.75;;;4.40;79.24
75996;BME280;64681;49.738;9.004;2023-01-31T15:53:25;100102.06;;;4.43;78.89
75996;BME280;64681;49.738;9.004;2023-01-31T15:55:58;100105.34;;;4.15;79.95